createdAt,value
2022-08-27T00:00:19.133Z,66.37
2022-08-27T00:02:46.054Z,66.40
2022-08-27T00:05:14.792Z,65.80
2022-08-27T00:07:42.424Z,66.82
2022-08-27T00:10:13.342Z,67.00
2022-08-27T00:12:40.015Z,65.74
2022-08-27T00:15:07.732Z,65.44
2022-08-27T00:17:35.208Z,65.75
2022-08-27T00:20:02.510Z,65.72
2022-08-27T00:22:29.137Z,65.12
2022-08-27T00:24:55.753Z,65.10
2022-08-27T00:27:22.385Z,66.23
2022-08-27T00:29:49.517Z,65.91
2022-08-27T00:32:17.052Z,66.32
2022-08-27T00:34:44.109Z,65.43
2022-08-27T00:37:11.053Z,67.03
2022-08-27T00:39:37.684Z,66.62
2022-08-27T00:42:05.923Z,65.90
2022-08-27T00:44:33.309Z,65.91
2022-08-27T00:47:04.743Z,66.46
2022-08-27T00:49:43.007Z,66.20
2022-08-27T00:52:51.505Z,65.50
2022-08-27T00:55:24.187Z,65.43
2022-08-27T00:58:12.577Z,65.77
2022-08-27T01:00:39.445Z,64.44
2022-08-27T01:03:06.528Z,64.28
2022-08-27T01:05:34.937Z,65.16
2022-08-27T01:08:08.203Z,65.54
2022-08-27T01:10:35.838Z,65.87
2022-08-27T01:13:03.185Z,67.31
2022-08-27T01:15:30.527Z,67.04
2022-08-27T01:17:58.922Z,67.05
2022-08-27T01:20:38.189Z,67.47
2022-08-27T01:23:08.340Z,67.38
2022-08-27T01:25:35.256Z,66.50
2022-08-27T01:28:03.571Z,67.50
2022-08-27T01:30:31.329Z,67.87
2022-08-27T01:32:57.980Z,65.40
2022-08-27T01:35:25.586Z,65.65
2022-08-27T01:37:57.110Z,66.73
2022-08-27T01:40:24.487Z,67.13
2022-08-27T01:42:55.100Z,67.63
2022-08-27T01:45:33.366Z,67.77
2022-08-27T01:48:00.786Z,67.02
2022-08-27T01:50:33.213Z,67.13
2022-08-27T01:53:09.098Z,68.79
2022-08-27T01:55:35.737Z,68.24
2022-08-27T01:58:02.693Z,67.76
2022-08-27T02:00:33.308Z,67.32
2022-08-27T02:03:00.028Z,67.62
2022-08-27T02:05:28.390Z,66.28
2022-08-27T02:07:56.223Z,67.13
2022-08-27T02:10:26.708Z,67.29
2022-08-27T02:12:53.441Z,67.86
2022-08-27T02:15:22.571Z,69.18
2022-08-27T02:17:49.500Z,68.97
2022-08-27T02:20:17.176Z,68.82
2022-08-27T02:22:44.568Z,68.18
2022-08-27T02:25:13.480Z,69.26
2022-08-27T02:27:42.302Z,69.83
2022-08-27T02:30:11.386Z,69.82
2022-08-27T02:32:38.111Z,70.30
2022-08-27T02:35:05.699Z,71.16
2022-08-27T02:37:32.765Z,71.02
2022-08-27T02:39:59.468Z,71.00
2022-08-27T02:42:26.155Z,70.73
2022-08-27T02:44:52.783Z,69.81
2022-08-27T02:47:19.478Z,70.34
2022-08-27T02:49:46.095Z,71.11
2022-08-27T02:52:12.832Z,70.84
2022-08-27T02:54:40.177Z,71.82
2022-08-27T02:57:06.788Z,71.20
2022-08-27T02:59:33.509Z,70.56
2022-08-27T03:02:00.298Z,72.32
2022-08-27T03:04:27.461Z,72.81
2022-08-27T03:06:54.102Z,72.67
2022-08-27T03:09:21.325Z,72.98
2022-08-27T03:11:48.004Z,74.04
2022-08-27T03:14:14.753Z,73.61
2022-08-27T03:16:41.498Z,74.16
2022-08-27T03:19:08.372Z,74.55
2022-08-27T03:21:35.875Z,73.98
2022-08-27T03:24:11.245Z,74.25
2022-08-27T03:26:38.563Z,75.44
2022-08-27T03:29:05.378Z,76.14
2022-08-27T03:31:32.067Z,76.06
2022-08-27T03:34:01.992Z,75.34
2022-08-27T03:36:30.662Z,75.35
2022-08-27T03:38:58.238Z,75.23
2022-08-27T03:41:54.009Z,74.80
2022-08-27T03:44:18.470Z,74.10
2022-08-27T03:46:51.312Z,75.37
2022-08-27T03:49:21.413Z,75.44
2022-08-27T03:51:50.083Z,75.69
2022-08-27T03:54:16.787Z,75.49
2022-08-27T03:56:43.464Z,76.44
2022-08-27T03:59:10.150Z,76.57
2022-08-27T04:01:36.838Z,76.40
2022-08-27T04:04:04.070Z,77.19
2022-08-27T04:06:30.710Z,76.96
2022-08-27T04:08:57.350Z,77.55
2022-08-27T04:11:23.992Z,77.92
2022-08-27T04:13:50.596Z,78.45
2022-08-27T04:16:18.488Z,78.34
2022-08-27T04:18:45.208Z,78.67
2022-08-27T04:21:13.797Z,78.35
2022-08-27T04:23:41.764Z,78.99
2022-08-27T04:26:11.031Z,78.13
2022-08-27T04:28:38.969Z,80.02
2022-08-27T04:31:12.967Z,80.54
2022-08-27T04:33:44.051Z,80.65
2022-08-27T04:36:18.351Z,81.31
2022-08-27T04:38:45.078Z,81.19
2022-08-27T04:41:12.200Z,82.54
2022-08-27T04:43:38.861Z,83.53
2022-08-27T04:46:05.721Z,84.26
2022-08-27T04:48:32.915Z,84.57
2022-08-27T04:50:59.549Z,84.62
2022-08-27T04:53:26.467Z,84.03
2022-08-27T04:55:55.427Z,82.76
2022-08-27T04:58:24.359Z,83.52
2022-08-27T05:00:54.551Z,82.00
2022-08-27T05:03:23.579Z,83.96
2022-08-27T05:05:52.115Z,84.27
2022-08-27T05:08:19.345Z,83.66
2022-08-27T05:10:48.786Z,83.36
2022-08-27T05:13:18.103Z,83.21
2022-08-27T05:15:44.937Z,82.80
2022-08-27T05:18:12.353Z,83.75
2022-08-27T05:20:46.560Z,83.46
2022-08-27T05:23:17.503Z,83.93
2022-08-27T05:25:47.457Z,84.56
2022-08-27T05:28:15.745Z,84.03
2022-08-27T05:30:49.269Z,84.64
2022-08-27T05:33:25.056Z,85.95
2022-08-27T05:35:54.591Z,84.27
2022-08-27T05:38:22.890Z,83.73
2022-08-27T05:40:49.539Z,83.32
2022-08-27T05:43:18.236Z,82.99
2022-08-27T05:45:47.403Z,81.14
2022-08-27T05:48:14.955Z,81.66
2022-08-27T05:50:43.851Z,80.11
2022-08-27T05:53:12.579Z,79.53
2022-08-27T05:55:44.951Z,80.76
2022-08-27T05:58:13.443Z,80.98
2022-08-27T06:00:40.074Z,81.16
2022-08-27T06:03:07.231Z,79.87
2022-08-27T06:05:34.063Z,77.51
2022-08-27T06:08:00.790Z,76.82
2022-08-27T06:10:27.534Z,75.96
2022-08-27T06:12:57.037Z,75.51
2022-08-27T06:15:23.842Z,75.56
2022-08-27T06:17:50.484Z,74.35
2022-08-27T06:20:17.115Z,74.11
2022-08-27T06:22:43.833Z,70.52
2022-08-27T06:25:10.455Z,70.90
2022-08-27T06:27:37.101Z,70.46
2022-08-27T06:30:04.502Z,71.16
2022-08-27T06:32:31.116Z,68.09
2022-08-27T06:34:57.768Z,65.23
2022-08-27T06:37:24.448Z,63.36
2022-08-27T06:39:51.382Z,64.40
2022-08-27T06:42:18.050Z,62.66
2022-08-27T06:44:44.753Z,60.92
2022-08-27T06:47:11.741Z,60.98
2022-08-27T06:49:40.635Z,62.99
2022-08-27T06:52:07.289Z,60.30
2022-08-27T06:54:35.908Z,61.24
2022-08-27T06:57:02.581Z,60.05
2022-08-27T06:59:30.483Z,57.78
2022-08-27T07:01:57.494Z,61.00
2022-08-27T07:04:32.689Z,59.98
2022-08-27T07:07:01.028Z,58.00
2022-08-27T07:09:27.695Z,58.79
2022-08-27T07:11:54.306Z,58.45
2022-08-27T07:14:20.980Z,57.82
2022-08-27T07:16:48.313Z,58.41
2022-08-27T07:19:17.319Z,53.01
2022-08-27T07:21:44.230Z,55.02
2022-08-27T07:24:12.255Z,54.81
2022-08-27T07:26:42.126Z,54.86
2022-08-27T07:29:11.265Z,53.65
2022-08-27T07:31:38.856Z,54.95
2022-08-27T07:34:06.995Z,55.18
2022-08-27T07:36:35.046Z,51.62
2022-08-27T07:39:02.110Z,50.86
2022-08-27T07:41:31.376Z,48.40
2022-08-27T07:44:02.759Z,51.06
2022-08-27T07:46:29.433Z,47.58
2022-08-27T07:48:56.706Z,49.73
2022-08-27T07:51:25.080Z,49.20
2022-08-27T07:53:52.536Z,46.97
2022-08-27T07:56:19.126Z,48.55
2022-08-27T07:58:46.165Z,47.19
2022-08-27T08:01:13.310Z,46.64
2022-08-27T08:03:40.996Z,46.22
2022-08-27T08:06:12.449Z,45.96
2022-08-27T08:08:40.742Z,43.79
2022-08-27T08:11:08.774Z,45.90
2022-08-27T08:13:36.463Z,44.54
2022-08-27T08:16:03.415Z,45.61
2022-08-27T08:18:30.075Z,44.72
2022-08-27T08:21:01.652Z,45.40
2022-08-27T08:23:28.740Z,42.41
2022-08-27T08:25:55.830Z,44.64
2022-08-27T08:28:22.492Z,43.91
2022-08-27T08:30:49.300Z,44.89
2022-08-27T08:33:15.932Z,46.86
2022-08-27T08:35:42.669Z,46.81
2022-08-27T08:38:10.237Z,46.82
2022-08-27T08:40:43.427Z,43.64
2022-08-27T08:43:33.328Z,44.14
2022-08-27T08:46:21.824Z,41.34
2022-08-27T08:48:54.820Z,44.02
2022-08-27T08:51:39.134Z,44.44
2022-08-27T08:54:20.102Z,41.98
2022-08-27T08:56:57.447Z,42.00
2022-08-27T08:59:31.946Z,43.70
2022-08-27T09:01:59.038Z,43.18
2022-08-27T09:04:30.048Z,43.31
2022-08-27T09:07:09.898Z,42.66
2022-08-27T09:09:47.577Z,42.88
2022-08-27T09:12:19.497Z,41.84
2022-08-27T09:14:53.100Z,42.35
2022-08-27T09:17:20.853Z,41.30
2022-08-27T09:19:48.473Z,40.59
2022-08-27T09:22:39.544Z,39.96
2022-08-27T09:25:25.412Z,41.57
2022-08-27T09:27:56.861Z,37.43
2022-08-27T09:30:30.571Z,34.31
2022-08-27T09:33:03.131Z,34.83
2022-08-27T09:35:41.067Z,32.86
2022-08-27T09:38:08.427Z,37.51
2022-08-27T09:40:45.755Z,34.29
2022-08-27T09:43:25.776Z,35.75
2022-08-27T09:45:58.417Z,36.52
2022-08-27T09:48:29.420Z,34.47
2022-08-27T09:51:08.336Z,35.04
2022-08-27T09:53:44.745Z,36.77
2022-08-27T09:56:24.640Z,35.02
2022-08-27T09:58:54.648Z,33.41
2022-08-27T10:01:26.848Z,33.42
2022-08-27T10:04:27.461Z,34.72
2022-08-27T10:06:54.210Z,33.31
2022-08-27T10:09:33.396Z,32.26
2022-08-27T10:12:16.909Z,32.68
2022-08-27T10:14:52.454Z,35.68
2022-08-27T10:17:25.582Z,31.04
2022-08-27T10:20:16.459Z,32.42
2022-08-27T10:23:19.107Z,31.61
2022-08-27T10:25:59.309Z,33.25
2022-08-27T10:28:31.485Z,32.45
2022-08-27T10:31:13.280Z,32.75
2022-08-27T10:33:42.731Z,31.13
2022-08-27T10:36:34.220Z,31.49
2022-08-27T10:39:13.053Z,34.20
2022-08-27T10:41:51.576Z,32.39
2022-08-27T10:44:38.891Z,29.15
2022-08-27T10:47:32.766Z,30.08
2022-08-27T10:50:10.860Z,31.90
2022-08-27T10:52:54.099Z,28.29
2022-08-27T10:55:42.413Z,30.42
2022-08-27T10:58:33.381Z,29.68
2022-08-27T11:01:18.053Z,29.12
2022-08-27T11:03:51.419Z,30.20
2022-08-27T11:06:41.496Z,30.49
2022-08-27T11:09:17.912Z,31.78
2022-08-27T11:14:45.998Z,29.44
2022-08-27T11:17:25.360Z,28.79
2022-08-27T11:20:28.817Z,31.08
2022-08-27T11:23:15.579Z,28.44
2022-08-27T11:26:01.095Z,30.30
2022-08-27T11:28:46.584Z,29.89
2022-08-27T11:31:27.902Z,26.99
2022-08-27T11:34:00.499Z,30.35
2022-08-27T11:36:27.128Z,28.48
2022-08-27T11:39:14.485Z,29.22
2022-08-27T11:42:09.514Z,27.83
2022-08-27T11:44:48.645Z,28.52
2022-08-27T11:47:25.167Z,28.47
2022-08-27T11:49:59.557Z,28.33
2022-08-27T11:52:35.581Z,28.83
2022-08-27T11:55:27.517Z,29.55
2022-08-27T11:58:09.252Z,27.68
2022-08-27T12:00:41.202Z,30.03
2022-08-27T12:03:23.319Z,27.97
2022-08-27T12:06:09.811Z,28.56
2022-08-27T12:08:37.789Z,29.72
2022-08-27T12:11:29.023Z,27.81
2022-08-27T12:13:58.362Z,25.99
2022-08-27T12:16:42.462Z,27.80
2022-08-27T12:19:16.002Z,28.00
2022-08-27T12:21:48.634Z,27.47
2022-08-27T12:24:21.121Z,26.83
2022-08-27T12:26:58.146Z,26.65
2022-08-27T12:29:27.766Z,27.05
2022-08-27T12:32:44.213Z,29.70
2022-08-27T12:35:17.885Z,27.50
2022-08-27T12:37:44.437Z,27.55
2022-08-27T12:40:40.380Z,25.68
2022-08-27T12:43:09.178Z,28.28
2022-08-27T12:45:50.561Z,27.01
2022-08-27T12:48:46.681Z,25.48
2022-08-27T12:51:33.977Z,26.94
2022-08-27T12:54:02.863Z,27.70
2022-08-27T12:56:44.825Z,27.12
2022-08-27T12:59:52.548Z,26.17
2022-08-27T13:02:32.147Z,25.47
2022-08-27T13:05:03.450Z,26.65
2022-08-27T13:07:42.785Z,27.07
2022-08-27T13:10:16.505Z,26.71
2022-08-27T13:12:46.119Z,26.32
2022-08-27T13:15:15.674Z,25.66
2022-08-27T13:17:46.644Z,27.44
2022-08-27T13:20:21.983Z,27.22
2022-08-27T13:22:49.712Z,27.06
2022-08-27T13:25:32.884Z,25.94
2022-08-27T13:28:08.798Z,26.42
2022-08-27T13:30:47.081Z,28.67
2022-08-27T13:33:25.282Z,26.08
2022-08-27T13:35:52.057Z,25.34
2022-08-27T13:38:21.656Z,27.29
2022-08-27T13:41:10.320Z,25.24
2022-08-27T13:43:43.655Z,26.39
2022-08-27T13:46:18.205Z,25.64
2022-08-27T13:48:49.312Z,25.96
2022-08-27T13:51:28.956Z,25.40
2022-08-27T13:53:56.316Z,25.33
2022-08-27T13:56:32.576Z,26.63
2022-08-27T13:59:26.093Z,26.15
2022-08-27T14:02:11.204Z,25.55
2022-08-27T14:04:43.778Z,25.91
2022-08-27T14:07:32.415Z,25.15
2022-08-27T14:10:04.513Z,24.46
2022-08-27T14:12:35.861Z,25.99
2022-08-27T14:15:48.260Z,24.92
2022-08-27T14:18:37.175Z,25.76
2022-08-27T14:21:09.090Z,25.29
2022-08-27T14:23:35.790Z,26.11
2022-08-27T14:26:02.932Z,25.36
2022-08-27T14:28:29.658Z,25.69
2022-08-27T14:30:56.316Z,26.91
2022-08-27T14:33:22.991Z,27.07
2022-08-27T14:35:49.650Z,27.69
2022-08-27T14:38:20.017Z,26.51
2022-08-27T14:40:48.162Z,27.30
2022-08-27T14:43:18.214Z,25.77
2022-08-27T14:45:51.685Z,24.22
2022-08-27T14:48:28.835Z,25.16
2022-08-27T14:50:56.698Z,26.54
2022-08-27T14:53:24.067Z,26.75
2022-08-27T14:55:51.664Z,25.36
2022-08-27T14:58:18.685Z,27.10
2022-08-27T15:00:45.303Z,26.88
2022-08-27T15:03:15.733Z,25.44
2022-08-27T15:05:43.034Z,26.49
2022-08-27T15:08:13.103Z,25.31
2022-08-27T15:10:40.517Z,24.61
2022-08-27T15:13:07.158Z,25.01
2022-08-27T15:15:33.985Z,26.57
2022-08-27T15:18:01.853Z,24.90
2022-08-27T15:20:28.471Z,27.04
2022-08-27T15:22:55.103Z,26.81
2022-08-27T15:25:22.421Z,23.61
2022-08-27T15:27:49.791Z,24.79
2022-08-27T15:30:18.348Z,24.39
2022-08-27T15:32:47.571Z,24.79
2022-08-27T15:35:18.366Z,23.46
2022-08-27T15:37:45.835Z,24.35
2022-08-27T15:40:15.612Z,24.41
2022-08-27T15:42:42.906Z,25.26
2022-08-27T15:45:12.461Z,26.86
2022-08-27T15:47:39.418Z,25.21
2022-08-27T15:50:06.930Z,24.61
2022-08-27T15:52:40.828Z,26.02
2022-08-27T15:55:19.586Z,26.69
2022-08-27T15:57:46.559Z,26.93
2022-08-27T16:00:13.666Z,26.81
2022-08-27T16:02:41.867Z,24.98
2022-08-27T16:05:08.593Z,23.96
2022-08-27T16:07:35.188Z,25.24
2022-08-27T16:10:04.213Z,26.18
2022-08-27T16:12:30.821Z,28.17
2022-08-27T16:14:57.424Z,27.66
2022-08-27T16:17:26.421Z,28.43
2022-08-27T16:19:53.533Z,28.25
2022-08-27T16:22:20.166Z,28.96
2022-08-27T16:24:46.861Z,28.97
2022-08-27T16:27:13.502Z,27.17
2022-08-27T16:29:40.190Z,28.49
2022-08-27T16:32:13.355Z,29.45
2022-08-27T16:34:40.176Z,29.80
2022-08-27T16:37:09.840Z,28.31
2022-08-27T16:39:40.443Z,30.65
2022-08-27T16:42:08.396Z,33.72
2022-08-27T16:44:35.012Z,32.89
2022-08-27T16:47:01.780Z,33.76
2022-08-27T16:49:28.403Z,32.78
2022-08-27T16:51:55.245Z,33.24
2022-08-27T16:54:21.972Z,33.35
2022-08-27T16:56:48.613Z,35.28
2022-08-27T16:59:15.236Z,34.21
2022-08-27T17:01:42.360Z,33.59
2022-08-27T17:04:17.258Z,34.49
2022-08-27T17:06:50.605Z,35.29
2022-08-27T17:09:18.233Z,35.43
2022-08-27T17:11:53.760Z,35.79
2022-08-27T17:14:20.498Z,35.96
2022-08-27T17:16:47.167Z,36.63
2022-08-27T17:19:16.653Z,38.82
2022-08-27T17:21:45.284Z,37.54
2022-08-27T17:24:13.062Z,38.72
2022-08-27T17:26:40.245Z,37.88
2022-08-27T17:29:06.941Z,37.35
2022-08-27T17:31:36.316Z,39.35
2022-08-27T17:34:04.550Z,38.61
2022-08-27T17:36:31.666Z,38.90
2022-08-27T17:39:00.210Z,39.68
2022-08-27T17:41:28.707Z,39.69
2022-08-27T17:44:01.485Z,39.04
2022-08-27T17:46:29.034Z,37.66
2022-08-27T17:48:55.763Z,37.65
2022-08-27T17:51:22.746Z,39.04
2022-08-27T17:53:55.950Z,39.09
2022-08-27T17:56:26.550Z,40.46
2022-08-27T17:58:54.135Z,40.17
2022-08-27T18:01:30.755Z,41.88
2022-08-27T18:03:58.602Z,41.88
2022-08-27T18:06:26.867Z,42.46
2022-08-27T18:08:54.266Z,41.08
2022-08-27T18:11:21.278Z,41.05
2022-08-27T18:13:52.972Z,40.77
2022-08-27T18:16:20.603Z,40.60
2022-08-27T18:18:47.665Z,40.03
2022-08-27T18:21:25.174Z,39.98
2022-08-27T18:23:53.429Z,40.17
2022-08-27T18:26:21.964Z,40.86
2022-08-27T18:28:49.167Z,40.86
2022-08-27T18:31:18.848Z,40.94
2022-08-27T18:33:45.969Z,42.02
2022-08-27T18:36:12.620Z,43.02
2022-08-27T18:38:39.367Z,43.84
2022-08-27T18:41:08.370Z,44.57
2022-08-27T18:43:35.885Z,44.10
2022-08-27T18:46:04.153Z,44.00
2022-08-27T18:48:30.967Z,44.05
2022-08-27T18:51:00.174Z,45.26
2022-08-27T18:53:30.404Z,45.22
2022-08-27T18:55:57.041Z,45.05
2022-08-27T18:58:24.190Z,45.29
2022-08-27T19:00:55.174Z,44.96
2022-08-27T19:03:26.697Z,46.07
2022-08-27T19:05:54.934Z,45.41
2022-08-27T19:08:24.362Z,47.24
2022-08-27T19:10:51.018Z,46.25
2022-08-27T19:13:17.766Z,47.02
2022-08-27T19:15:52.001Z,48.10
2022-08-27T19:18:19.185Z,47.69
2022-08-27T19:20:45.843Z,48.33
2022-08-27T19:23:12.624Z,47.72
2022-08-27T19:25:39.558Z,48.43
2022-08-27T19:28:06.393Z,48.19
2022-08-27T19:30:33.138Z,48.35
2022-08-27T19:32:59.831Z,48.50
2022-08-27T19:35:26.464Z,49.40
2022-08-27T19:37:53.530Z,49.42
2022-08-27T19:40:23.998Z,49.04
2022-08-27T19:42:50.921Z,48.54
2022-08-27T19:45:23.108Z,49.80
2022-08-27T19:47:51.776Z,49.42
2022-08-27T19:50:18.723Z,50.07
2022-08-27T19:52:45.461Z,48.82
2022-08-27T19:55:14.295Z,48.48
2022-08-27T19:57:42.934Z,48.22
2022-08-27T20:00:12.339Z,49.68
2022-08-27T20:02:39.118Z,50.04
2022-08-27T20:05:17.875Z,49.98
2022-08-27T20:07:49.499Z,50.68
2022-08-27T20:10:18.206Z,50.24
2022-08-27T20:12:45.260Z,50.40
2022-08-27T20:15:12.364Z,50.19
2022-08-27T20:17:39.416Z,50.91
2022-08-27T20:20:07.291Z,50.59
2022-08-27T20:22:33.952Z,50.40
2022-08-27T20:25:00.666Z,50.53
2022-08-27T20:27:27.290Z,50.42
2022-08-27T20:29:53.970Z,52.36
2022-08-27T20:32:21.596Z,52.19
2022-08-27T20:34:48.811Z,51.63
2022-08-27T20:37:16.665Z,51.80
2022-08-27T20:39:43.334Z,52.46
2022-08-27T20:42:10.023Z,53.67
2022-08-27T20:44:38.025Z,53.40
2022-08-27T20:47:05.064Z,53.12
2022-08-27T20:49:31.758Z,53.08
2022-08-27T20:52:03.271Z,53.34
2022-08-27T20:54:32.196Z,53.75
2022-08-27T20:56:58.906Z,54.06
2022-08-27T20:59:26.201Z,53.72
2022-08-27T21:01:52.935Z,53.87
2022-08-27T21:04:19.636Z,53.33
2022-08-27T21:06:46.328Z,53.66
2022-08-27T21:09:12.966Z,55.63
2022-08-27T21:11:39.595Z,54.49
2022-08-27T21:14:06.273Z,55.13
2022-08-27T21:16:33.038Z,55.02
2022-08-27T21:18:59.695Z,55.19
2022-08-27T21:21:26.551Z,55.56
2022-08-27T21:23:53.170Z,55.04
2022-08-27T21:26:19.889Z,56.57
2022-08-27T21:28:46.529Z,56.30
2022-08-27T21:31:13.334Z,56.56
2022-08-27T21:33:40.130Z,57.25
2022-08-27T21:36:11.312Z,57.38
2022-08-27T21:38:38.944Z,56.84
2022-08-27T21:41:05.762Z,57.39
2022-08-27T21:43:32.588Z,57.77
2022-08-27T21:45:59.243Z,58.32
2022-08-27T21:48:26.498Z,58.68
2022-08-27T21:50:53.711Z,59.65
2022-08-27T21:53:21.538Z,60.15
2022-08-27T21:55:52.372Z,59.30
2022-08-27T21:58:23.332Z,59.56
2022-08-27T22:00:53.028Z,59.25
2022-08-27T22:03:21.670Z,61.21
2022-08-27T22:05:49.496Z,61.79
2022-08-27T22:08:18.718Z,62.60
2022-08-27T22:10:48.761Z,62.94
2022-08-27T22:13:15.798Z,62.73
2022-08-27T22:15:42.507Z,62.55
2022-08-27T22:18:09.583Z,61.90
2022-08-27T22:20:36.555Z,63.03
2022-08-27T22:23:06.472Z,63.01
2022-08-27T22:25:33.727Z,63.04
2022-08-27T22:28:00.375Z,62.79
2022-08-27T22:30:27.068Z,62.18
2022-08-27T22:32:53.720Z,63.23
2022-08-27T22:35:20.953Z,61.98
2022-08-27T22:37:47.647Z,62.52
2022-08-27T22:40:19.197Z,62.01
2022-08-27T22:42:46.400Z,63.23
2022-08-27T22:45:13.186Z,62.49
2022-08-27T22:47:39.822Z,61.98
2022-08-27T22:50:07.323Z,62.56
2022-08-27T22:52:34.034Z,62.66
2022-08-27T22:55:00.690Z,62.45
2022-08-27T22:57:27.532Z,62.78
2022-08-27T22:59:54.191Z,63.06
2022-08-27T23:02:21.061Z,63.37
2022-08-27T23:04:55.778Z,63.09
2022-08-27T23:07:23.960Z,63.90
2022-08-27T23:09:50.923Z,64.26
2022-08-27T23:12:17.622Z,64.32
2022-08-27T23:14:44.283Z,64.44
2022-08-27T23:17:10.889Z,64.92
2022-08-27T23:19:37.569Z,63.64
2022-08-27T23:22:06.647Z,64.49
2022-08-27T23:24:34.392Z,64.07
2022-08-27T23:27:01.005Z,64.24
2022-08-27T23:29:27.945Z,64.49
2022-08-27T23:31:55.028Z,65.00
2022-08-27T23:34:21.668Z,65.04
2022-08-27T23:36:48.359Z,65.54
2022-08-27T23:39:15.676Z,65.83
2022-08-27T23:41:43.291Z,66.94
2022-08-27T23:44:13.060Z,67.78
2022-08-27T23:46:40.077Z,67.95
2022-08-27T23:49:06.756Z,67.41
2022-08-27T23:51:33.468Z,66.81
2022-08-27T23:54:00.202Z,67.75
2022-08-27T23:56:28.100Z,65.73
2022-08-27T23:58:56.980Z,67.50
